createdAt,value
2022-11-18T00:00:53.697Z,0.20
2022-11-18T00:03:22.260Z,0.27
2022-11-18T00:05:58.682Z,0.10
2022-11-18T00:08:27.725Z,0.20
2022-11-18T00:10:56.176Z,0.20
2022-11-18T00:13:53.994Z,0.20
2022-11-18T00:16:22.438Z,0.10
2022-11-18T00:18:50.965Z,0.20
2022-11-18T00:21:20.873Z,0.40
2022-11-18T00:23:50.511Z,0.07
2022-11-18T00:26:19.129Z,0.20
2022-11-18T00:28:47.680Z,0.17
2022-11-18T00:31:16.306Z,0.30
2022-11-18T00:33:45.013Z,0.20
2022-11-18T00:36:14.038Z,0.20
2022-11-18T00:38:44.014Z,0.30
2022-11-18T00:41:14.600Z,0.20
2022-11-18T00:43:42.370Z,0.20
2022-11-18T00:46:11.469Z,0.20
2022-11-18T00:48:40.495Z,0.10
2022-11-18T00:51:10.213Z,0.33
2022-11-18T00:53:38.814Z,0.10
2022-11-18T00:56:09.379Z,0.13
2022-11-18T00:58:37.833Z,0.20
2022-11-18T01:01:06.669Z,0.20
2022-11-18T01:03:35.471Z,0.20
2022-11-18T01:06:03.928Z,0.30
2022-11-18T01:08:32.409Z,0.30
2022-11-18T01:11:21.196Z,0.10
2022-11-18T01:13:51.578Z,0.30
2022-11-18T01:16:20.691Z,0.20
2022-11-18T01:18:49.341Z,0.20
2022-11-18T01:21:18.249Z,0.20
2022-11-18T01:23:46.838Z,0.20
2022-11-18T01:26:16.285Z,0.20
2022-11-18T01:28:45.254Z,0.20
2022-11-18T01:31:16.109Z,0.30
2022-11-18T01:33:44.925Z,0.13
2022-11-18T01:36:20.053Z,0.30
2022-11-18T01:38:48.762Z,0.30
2022-11-18T01:41:17.956Z,0.20
2022-11-18T01:43:50.471Z,0.30
2022-11-18T01:46:20.317Z,0.30
2022-11-18T01:48:52.029Z,0.20
2022-11-18T01:51:22.314Z,0.20
2022-11-18T01:53:53.406Z,0.20
2022-11-18T01:56:23.612Z,0.20
2022-11-18T01:58:56.250Z,0.30
2022-11-18T02:01:26.272Z,0.23
2022-11-18T02:03:54.902Z,0.13
2022-11-18T02:06:23.456Z,0.20
2022-11-18T02:08:52.581Z,0.10
2022-11-18T02:11:38.657Z,0.17
2022-11-18T02:14:08.710Z,0.40
2022-11-18T02:16:44.410Z,0.10
2022-11-18T02:19:17.439Z,0.10
2022-11-18T02:21:52.006Z,0.20
2022-11-18T02:24:29.385Z,0.27
2022-11-18T02:27:25.002Z,0.17
2022-11-18T02:29:57.809Z,0.10
2022-11-18T02:32:27.825Z,0.00
2022-11-18T02:35:00.993Z,0.13
2022-11-18T02:37:32.770Z,0.20
2022-11-18T02:40:03.374Z,0.20
2022-11-18T02:42:33.118Z,0.13
2022-11-18T02:45:06.099Z,0.13
2022-11-18T02:47:35.995Z,0.20
2022-11-18T02:50:06.540Z,0.20
2022-11-18T02:52:35.574Z,0.20
2022-11-18T02:55:04.677Z,0.20
2022-11-18T02:57:35.525Z,0.20
2022-11-18T03:00:05.846Z,0.20
2022-11-18T03:02:41.921Z,0.30
2022-11-18T03:05:12.265Z,0.30
2022-11-18T03:07:42.613Z,0.30
2022-11-18T03:10:11.224Z,0.40
2022-11-18T03:12:45.256Z,0.23
2022-11-18T03:15:18.606Z,0.20
2022-11-18T03:17:49.505Z,0.33
2022-11-18T03:20:23.422Z,0.20
2022-11-18T03:22:56.110Z,0.20
2022-11-18T03:25:28.557Z,0.20
2022-11-18T03:27:59.846Z,0.40
2022-11-18T03:30:32.037Z,0.30
2022-11-18T03:33:02.381Z,0.50
2022-11-18T03:35:32.925Z,0.40
2022-11-18T03:38:03.688Z,0.30
2022-11-18T03:40:33.381Z,0.40
2022-11-18T03:43:04.897Z,0.20
2022-11-18T03:45:37.670Z,0.30
2022-11-18T03:48:10.148Z,0.40
2022-11-18T03:50:41.498Z,0.17
2022-11-18T03:53:10.855Z,0.30
2022-11-18T03:55:41.522Z,0.23
2022-11-18T03:58:12.722Z,0.30
2022-11-18T04:00:43.929Z,0.30
2022-11-18T04:03:12.709Z,0.27
2022-11-18T04:05:41.959Z,0.27
2022-11-18T04:08:12.883Z,0.30
2022-11-18T04:10:43.909Z,0.50
2022-11-18T04:13:15.222Z,0.13
2022-11-18T04:15:45.317Z,0.20
2022-11-18T04:18:13.774Z,0.20
2022-11-18T04:20:42.466Z,0.37
2022-11-18T04:23:11.055Z,0.30
2022-11-18T04:25:39.633Z,0.40
2022-11-18T04:28:08.210Z,0.20
2022-11-18T04:30:37.041Z,0.20
2022-11-18T04:33:06.893Z,0.30
2022-11-18T04:35:35.405Z,0.57
2022-11-18T04:38:05.030Z,0.20
2022-11-18T04:40:33.740Z,0.33
2022-11-18T04:43:02.325Z,0.30
2022-11-18T04:45:30.882Z,0.30
2022-11-18T04:48:03.493Z,0.20
2022-11-18T04:50:34.553Z,0.60
2022-11-18T04:53:03.004Z,0.37
2022-11-18T04:55:31.469Z,0.13
2022-11-18T04:58:00.170Z,0.27
2022-11-18T05:00:28.637Z,0.30
2022-11-18T05:02:57.085Z,0.20
2022-11-18T05:05:25.741Z,0.20
2022-11-18T05:07:55.558Z,0.37
2022-11-18T05:10:23.985Z,0.20
2022-11-18T05:12:52.688Z,0.30
2022-11-18T05:15:23.965Z,0.47
2022-11-18T05:17:52.666Z,0.40
2022-11-18T05:20:21.688Z,0.30
2022-11-18T05:22:50.156Z,0.30
2022-11-18T05:25:20.167Z,0.30
2022-11-18T05:27:48.766Z,0.27
2022-11-18T05:30:17.219Z,0.40
2022-11-18T05:32:45.713Z,0.47
2022-11-18T05:35:14.485Z,0.37
2022-11-18T05:37:42.930Z,0.43
2022-11-18T05:40:11.961Z,0.70
2022-11-18T05:42:59.483Z,0.40
2022-11-18T05:45:27.928Z,0.40
2022-11-18T05:48:04.718Z,0.70
2022-11-18T05:50:34.303Z,0.40
2022-11-18T05:53:02.861Z,0.60
2022-11-18T05:55:33.597Z,0.50
2022-11-18T05:58:03.531Z,0.60
2022-11-18T06:00:32.844Z,0.50
2022-11-18T06:03:04.850Z,0.60
2022-11-18T06:05:33.350Z,0.40
2022-11-18T06:08:01.859Z,0.50
2022-11-18T06:10:33.097Z,0.60
2022-11-18T06:13:05.070Z,0.50
2022-11-18T06:15:34.899Z,0.50
2022-11-18T06:18:05.090Z,0.80
2022-11-18T06:20:36.015Z,0.63
2022-11-18T06:23:04.592Z,0.40
2022-11-18T06:25:35.625Z,0.50
2022-11-18T06:28:05.653Z,0.63
2022-11-18T06:30:34.295Z,0.43
2022-11-18T06:33:02.875Z,0.70
2022-11-18T06:35:31.423Z,0.70
2022-11-18T06:37:59.981Z,0.50
2022-11-18T06:40:34.251Z,0.67
2022-11-18T06:43:25.969Z,0.70
2022-11-18T06:46:11.861Z,0.50
2022-11-18T06:48:40.466Z,0.67
2022-11-18T06:51:09.478Z,0.70
2022-11-18T06:53:37.994Z,0.50
2022-11-18T06:56:06.871Z,0.60
2022-11-18T06:58:36.911Z,0.60
2022-11-18T07:01:11.562Z,0.60
2022-11-18T07:03:40.350Z,0.60
2022-11-18T07:06:09.428Z,0.60
2022-11-18T07:08:39.641Z,0.70
2022-11-18T07:11:09.297Z,0.80
2022-11-18T07:13:43.388Z,0.70
2022-11-18T07:16:13.917Z,0.60
2022-11-18T07:18:43.181Z,0.60
2022-11-18T07:21:12.613Z,0.47
2022-11-18T07:23:41.264Z,0.70
2022-11-18T07:26:09.965Z,0.50
2022-11-18T07:28:39.797Z,0.80
2022-11-18T07:31:09.282Z,0.50
2022-11-18T07:33:38.373Z,0.60
2022-11-18T07:36:08.265Z,0.70
2022-11-18T07:38:36.945Z,0.60
2022-11-18T07:41:06.101Z,0.63
2022-11-18T07:43:35.127Z,0.60
2022-11-18T07:46:12.312Z,0.60
2022-11-18T07:48:40.956Z,0.60
2022-11-18T07:51:09.488Z,0.63
2022-11-18T07:53:38.385Z,0.60
2022-11-18T07:56:07.323Z,0.80
2022-11-18T07:58:35.806Z,0.70
2022-11-18T08:01:09.252Z,0.60
2022-11-18T08:03:39.642Z,0.70
2022-11-18T08:06:09.405Z,0.80
2022-11-18T08:08:38.325Z,0.80
2022-11-18T08:11:07.777Z,0.70
2022-11-18T08:13:36.533Z,0.70
2022-11-18T08:16:05.175Z,0.60
2022-11-18T08:18:34.314Z,1.10
2022-11-18T08:21:05.160Z,0.80
2022-11-18T08:23:38.841Z,0.80
2022-11-18T08:26:11.238Z,0.80
2022-11-18T08:28:40.143Z,0.70
2022-11-18T08:31:12.448Z,0.80
2022-11-18T08:33:41.463Z,0.70
2022-11-18T08:36:12.574Z,0.63
2022-11-18T08:38:41.304Z,0.80
2022-11-18T08:41:09.902Z,0.87
2022-11-18T08:43:38.910Z,0.60
2022-11-18T08:46:07.523Z,0.77
2022-11-18T08:48:36.140Z,0.77
2022-11-18T08:51:04.957Z,1.00
2022-11-18T08:53:34.989Z,0.87
2022-11-18T08:56:03.612Z,0.87
2022-11-18T08:58:32.313Z,0.80
2022-11-18T09:01:00.826Z,0.80
2022-11-18T09:03:31.951Z,0.80
2022-11-18T09:06:06.852Z,0.80
2022-11-18T09:08:37.246Z,1.00
2022-11-18T09:11:09.409Z,1.00
2022-11-18T09:14:09.629Z,1.27
2022-11-18T09:16:28.378Z,1.47
2022-11-18T09:18:57.725Z,1.30
2022-11-18T09:21:26.703Z,2.83
2022-11-18T09:23:56.682Z,1.93
2022-11-18T09:26:25.442Z,1.30
2022-11-18T09:28:56.833Z,0.80
2022-11-18T09:31:25.449Z,1.00
2022-11-18T09:33:54.005Z,1.03
2022-11-18T09:36:22.974Z,1.17
2022-11-18T09:38:53.384Z,1.00
2022-11-18T09:41:38.096Z,1.10
2022-11-18T09:44:10.010Z,0.90
2022-11-18T09:46:44.913Z,0.90
2022-11-18T09:49:16.722Z,0.80
2022-11-18T09:51:46.533Z,0.80
2022-11-18T09:54:20.457Z,0.80
2022-11-18T09:56:51.971Z,0.90
2022-11-18T09:59:21.824Z,0.90
2022-11-18T10:01:50.976Z,0.77
2022-11-18T10:04:20.465Z,1.03
2022-11-18T10:06:49.524Z,1.20
2022-11-18T10:09:28.196Z,1.00
2022-11-18T10:12:09.619Z,1.07
2022-11-18T10:14:45.185Z,0.80
2022-11-18T10:17:27.014Z,1.00
2022-11-18T10:19:58.695Z,1.20
2022-11-18T10:22:29.984Z,0.90
2022-11-18T10:25:00.789Z,0.80
2022-11-18T10:27:35.901Z,0.80
2022-11-18T10:30:04.601Z,0.77
2022-11-18T10:32:33.177Z,0.80
2022-11-18T10:35:01.732Z,0.60
2022-11-18T10:38:00.276Z,0.87
2022-11-18T10:40:25.961Z,0.80
2022-11-18T10:42:56.136Z,0.70
2022-11-18T10:45:27.097Z,0.83
2022-11-18T10:48:02.828Z,0.70
2022-11-18T10:50:33.201Z,0.70
2022-11-18T10:53:02.090Z,0.90
2022-11-18T10:55:30.850Z,0.90
2022-11-18T10:58:02.956Z,1.00
2022-11-18T11:00:49.012Z,0.80
2022-11-18T11:03:35.209Z,0.73
2022-11-18T11:06:21.544Z,1.00
2022-11-18T11:08:50.979Z,0.80
2022-11-18T11:11:26.182Z,0.67
2022-11-18T11:13:58.385Z,0.60
2022-11-18T11:16:27.983Z,0.83
2022-11-18T11:18:58.476Z,0.80
2022-11-18T11:21:28.097Z,0.90
2022-11-18T11:23:56.547Z,0.90
2022-11-18T11:29:27.953Z,0.87
2022-11-18T11:32:01.613Z,0.70
2022-11-18T11:34:34.737Z,0.87
2022-11-18T11:37:06.016Z,0.70
2022-11-18T11:39:51.798Z,1.00
2022-11-18T11:42:30.624Z,0.80
2022-11-18T11:45:08.756Z,0.70
2022-11-18T11:47:50.841Z,0.70
2022-11-18T11:50:21.550Z,0.70
2022-11-18T11:52:55.569Z,0.80
2022-11-18T11:55:25.533Z,0.70
2022-11-18T11:58:02.602Z,0.70
2022-11-18T12:00:36.800Z,1.00
2022-11-18T12:03:14.510Z,0.60
2022-11-18T12:05:43.282Z,0.67
2022-11-18T12:08:14.775Z,0.80
2022-11-18T12:10:46.987Z,1.00
2022-11-18T12:13:24.124Z,0.93
2022-11-18T12:15:57.671Z,0.73
2022-11-18T12:18:28.644Z,0.73
2022-11-18T12:20:57.273Z,0.90
2022-11-18T12:23:27.684Z,0.90
2022-11-18T12:25:58.529Z,0.80
2022-11-18T12:28:28.546Z,0.90
2022-11-18T12:31:15.749Z,0.80
2022-11-18T12:33:46.289Z,0.90
2022-11-18T12:36:26.958Z,0.73
2022-11-18T12:38:55.856Z,0.70
2022-11-18T12:41:59.808Z,0.90
2022-11-18T12:44:29.488Z,0.90
2022-11-18T12:46:58.455Z,0.70
2022-11-18T12:49:59.966Z,0.70
2022-11-18T12:52:46.615Z,0.70
2022-11-18T12:55:18.016Z,0.80
2022-11-18T12:57:46.461Z,0.50
2022-11-18T13:00:19.044Z,0.60
2022-11-18T13:02:52.978Z,0.90
2022-11-18T13:05:22.396Z,0.80
2022-11-18T13:08:10.565Z,0.60
2022-11-18T13:10:42.756Z,0.70
2022-11-18T13:13:15.438Z,0.70
2022-11-18T13:16:02.292Z,0.70
2022-11-18T13:18:30.883Z,0.70
2022-11-18T13:21:20.168Z,0.60
2022-11-18T13:23:59.290Z,0.70
2022-11-18T13:26:31.185Z,0.50
2022-11-18T13:29:17.732Z,0.70
2022-11-18T13:31:49.918Z,0.60
2022-11-18T13:34:20.506Z,0.60
2022-11-18T13:36:50.315Z,0.67
2022-11-18T13:39:20.892Z,0.50
2022-11-18T13:41:59.786Z,0.50
2022-11-18T13:44:30.187Z,0.43
2022-11-18T13:47:02.134Z,0.70
2022-11-18T13:49:38.224Z,0.60
2022-11-18T13:52:07.129Z,0.53
2022-11-18T13:54:36.023Z,0.60
2022-11-18T13:57:05.882Z,0.53
2022-11-18T13:59:35.536Z,0.60
2022-11-18T14:02:04.014Z,0.70
2022-11-18T14:04:34.343Z,0.50
2022-11-18T14:07:24.882Z,0.70
2022-11-18T14:09:56.693Z,0.43
2022-11-18T14:12:29.113Z,0.50
2022-11-18T14:15:12.863Z,0.70
2022-11-18T14:17:51.318Z,0.47
2022-11-18T14:20:20.052Z,0.47
2022-11-18T14:22:50.426Z,0.60
2022-11-18T14:25:20.331Z,0.57
2022-11-18T14:27:50.829Z,0.50
2022-11-18T14:30:43.240Z,0.50
2022-11-18T14:33:12.546Z,0.50
2022-11-18T14:35:41.397Z,0.60
2022-11-18T14:38:36.725Z,0.70
2022-11-18T14:41:04.165Z,0.50
2022-11-18T14:43:34.336Z,0.50
2022-11-18T14:46:03.980Z,0.50
2022-11-18T14:48:33.366Z,0.40
2022-11-18T14:51:02.236Z,0.50
2022-11-18T14:53:32.957Z,0.40
2022-11-18T14:56:01.605Z,0.70
2022-11-18T14:58:30.103Z,0.70
2022-11-18T15:00:59.985Z,0.60
2022-11-18T15:03:28.597Z,0.50
2022-11-18T15:05:57.633Z,0.70
2022-11-18T15:08:26.076Z,0.60
2022-11-18T15:10:54.613Z,0.60
2022-11-18T15:13:23.218Z,0.60
2022-11-18T15:15:51.659Z,0.50
2022-11-18T15:18:25.159Z,0.70
2022-11-18T15:20:53.956Z,0.50
2022-11-18T15:23:25.757Z,0.47
2022-11-18T15:25:58.220Z,0.43
2022-11-18T15:28:26.661Z,0.30
2022-11-18T15:30:55.138Z,0.50
2022-11-18T15:33:25.164Z,0.60
2022-11-18T15:35:55.857Z,0.50
2022-11-18T15:38:24.292Z,0.50
2022-11-18T15:40:53.069Z,0.37
2022-11-18T15:43:21.504Z,0.60
2022-11-18T15:45:49.921Z,0.40
2022-11-18T15:48:18.653Z,0.23
2022-11-18T15:50:51.939Z,0.67
2022-11-18T15:53:22.788Z,0.40
2022-11-18T15:55:51.280Z,0.40
2022-11-18T15:58:20.472Z,0.47
2022-11-18T16:00:49.139Z,0.40
2022-11-18T16:03:17.601Z,0.50
2022-11-18T16:05:46.056Z,0.43
2022-11-18T16:08:16.245Z,0.40
2022-11-18T16:11:02.081Z,0.70
2022-11-18T16:13:30.689Z,0.50
2022-11-18T16:15:59.110Z,0.50
2022-11-18T16:18:27.553Z,0.30
2022-11-18T16:20:59.311Z,0.30
2022-11-18T16:23:29.233Z,0.40
2022-11-18T16:25:57.861Z,0.33
2022-11-18T16:28:26.629Z,0.40
2022-11-18T16:31:12.704Z,0.50
2022-11-18T16:33:41.349Z,0.30
2022-11-18T16:36:10.159Z,0.30
2022-11-18T16:38:40.104Z,0.50
2022-11-18T16:41:29.673Z,0.30
2022-11-18T16:43:58.744Z,0.50
2022-11-18T16:46:27.293Z,0.30
2022-11-18T16:48:57.374Z,0.43
2022-11-18T16:51:27.830Z,0.40
2022-11-18T16:53:58.755Z,0.30
2022-11-18T16:56:28.048Z,0.27
2022-11-18T16:59:00.153Z,0.40
2022-11-18T17:01:29.872Z,0.43
2022-11-18T17:04:00.511Z,0.40
2022-11-18T17:06:29.196Z,0.50
2022-11-18T17:08:59.773Z,0.40
2022-11-18T17:11:28.618Z,0.40
2022-11-18T17:13:58.449Z,0.40
2022-11-18T17:16:27.620Z,0.40
2022-11-18T17:18:56.722Z,0.50
2022-11-18T17:21:25.710Z,0.37
2022-11-18T17:23:54.228Z,0.30
2022-11-18T17:26:25.049Z,0.40
2022-11-18T17:28:53.717Z,0.30
2022-11-18T17:31:22.684Z,0.30
2022-11-18T17:33:51.657Z,0.50
2022-11-18T17:36:20.825Z,0.30
2022-11-18T17:38:50.509Z,0.30
2022-11-18T17:41:34.080Z,0.40
2022-11-18T17:44:04.955Z,0.30
2022-11-18T17:46:37.734Z,0.30
2022-11-18T17:49:08.141Z,0.37
2022-11-18T17:51:36.603Z,0.40
2022-11-18T17:54:05.225Z,0.30
2022-11-18T17:56:33.953Z,0.20
2022-11-18T17:59:03.855Z,0.40
2022-11-18T18:01:32.635Z,0.40
2022-11-18T18:04:01.293Z,0.40
2022-11-18T18:06:29.826Z,0.30
2022-11-18T18:08:58.587Z,0.40
2022-11-18T18:11:28.836Z,0.50
2022-11-18T18:14:14.125Z,0.40
2022-11-18T18:16:45.400Z,0.47
2022-11-18T18:19:14.634Z,0.50
2022-11-18T18:21:43.082Z,0.40
2022-11-18T18:24:12.049Z,0.60
2022-11-18T18:26:40.688Z,0.40
2022-11-18T18:29:09.131Z,0.43
2022-11-18T18:31:38.527Z,0.37
2022-11-18T18:34:08.392Z,0.20
2022-11-18T18:36:36.986Z,0.47
2022-11-18T18:39:05.643Z,0.30
2022-11-18T18:41:34.076Z,0.20
2022-11-18T18:44:02.874Z,0.20
2022-11-18T18:46:34.140Z,0.37
2022-11-18T18:49:04.243Z,0.40
2022-11-18T18:51:36.686Z,0.30
2022-11-18T18:54:05.409Z,0.40
2022-11-18T18:56:34.198Z,0.33
2022-11-18T18:59:03.241Z,0.30
2022-11-18T19:01:31.824Z,0.23
2022-11-18T19:04:02.044Z,0.30
2022-11-18T19:09:21.436Z,0.30
2022-11-18T19:12:07.688Z,0.47
2022-11-18T19:14:36.443Z,0.23
2022-11-18T19:17:10.646Z,0.20
2022-11-18T19:19:58.082Z,0.40
2022-11-18T19:22:26.861Z,0.20
2022-11-18T19:24:56.787Z,0.40
2022-11-18T19:27:25.700Z,0.20
2022-11-18T19:29:54.177Z,0.30
2022-11-18T19:32:23.300Z,0.20
2022-11-18T19:34:52.041Z,0.20
2022-11-18T19:37:20.629Z,0.30
2022-11-18T19:39:50.432Z,0.27
2022-11-18T19:42:20.515Z,0.20
2022-11-18T19:44:49.160Z,0.20
2022-11-18T19:47:17.577Z,0.40
2022-11-18T19:49:46.185Z,0.23
2022-11-18T19:52:15.045Z,0.33
2022-11-18T19:54:43.484Z,0.23
2022-11-18T19:57:12.025Z,0.30
2022-11-18T19:59:41.914Z,0.40
2022-11-18T20:02:12.175Z,0.50
2022-11-18T20:04:40.705Z,1.20
2022-11-18T20:07:09.330Z,1.80
2022-11-18T20:09:37.786Z,3.43
2022-11-18T20:12:07.076Z,0.60
2022-11-18T20:14:35.620Z,1.10
2022-11-18T20:17:05.536Z,2.07
2022-11-18T20:19:34.141Z,1.73
2022-11-18T20:22:02.704Z,0.97
2022-11-18T20:24:31.139Z,2.30
2022-11-18T20:26:59.629Z,1.00
2022-11-18T20:29:28.337Z,1.60
2022-11-18T20:31:56.777Z,1.30
2022-11-18T20:34:26.737Z,2.63
2022-11-18T20:36:55.340Z,0.90
2022-11-18T20:39:26.236Z,1.20
2022-11-18T20:42:08.560Z,0.90
2022-11-18T20:44:37.082Z,0.47
2022-11-18T20:47:05.560Z,0.20
2022-11-18T20:49:35.484Z,0.40
2022-11-18T20:52:03.981Z,0.40
2022-11-18T20:54:33.778Z,0.30
2022-11-18T20:57:02.283Z,0.30
2022-11-18T20:59:30.828Z,0.30
2022-11-18T21:01:59.271Z,0.53
2022-11-18T21:04:27.756Z,0.50
2022-11-18T21:07:01.564Z,0.27
2022-11-18T21:09:32.095Z,0.30
2022-11-18T21:12:00.615Z,0.30
2022-11-18T21:14:28.144Z,0.40
2022-11-18T21:16:58.122Z,0.20
2022-11-18T21:19:27.610Z,0.40
2022-11-18T21:21:57.754Z,0.30
2022-11-18T21:24:31.563Z,0.20
2022-11-18T21:27:00.516Z,0.40
2022-11-18T21:29:29.976Z,0.30
2022-11-18T21:32:00.669Z,0.30
2022-11-18T21:34:29.480Z,0.20
2022-11-18T21:36:59.323Z,0.33
2022-11-18T21:39:28.029Z,0.30
2022-11-18T21:41:57.525Z,0.40
2022-11-18T21:44:27.935Z,0.20
2022-11-18T21:46:57.314Z,0.40
2022-11-18T21:49:25.757Z,0.30
2022-11-18T21:51:54.268Z,0.30
2022-11-18T21:54:24.320Z,0.40
2022-11-18T21:56:53.783Z,0.40
2022-11-18T21:59:23.697Z,0.30
2022-11-18T22:01:52.388Z,0.23
2022-11-18T22:04:34.643Z,0.40
2022-11-18T22:07:03.455Z,0.40
2022-11-18T22:09:36.796Z,0.30
2022-11-18T22:12:06.645Z,0.33
2022-11-18T22:14:35.147Z,0.30
2022-11-18T22:17:03.917Z,0.37
2022-11-18T22:19:32.671Z,0.40
2022-11-18T22:22:01.168Z,0.30
2022-11-18T22:24:29.600Z,0.57
2022-11-18T22:26:59.608Z,0.30
2022-11-18T22:29:28.028Z,0.30
2022-11-18T22:31:57.188Z,0.40
2022-11-18T22:34:26.522Z,0.40
2022-11-18T22:36:56.180Z,0.30
2022-11-18T22:39:24.629Z,0.40
2022-11-18T22:42:10.815Z,0.30
2022-11-18T22:44:40.748Z,0.50
2022-11-18T22:47:09.316Z,0.50
2022-11-18T22:49:37.861Z,0.40
2022-11-18T22:52:06.434Z,0.60
2022-11-18T22:54:39.547Z,0.40
2022-11-18T22:57:08.973Z,0.40
2022-11-18T22:59:37.568Z,0.40
2022-11-18T23:02:07.660Z,0.30
2022-11-18T23:04:36.438Z,0.40
2022-11-18T23:07:05.245Z,0.50
2022-11-18T23:09:33.725Z,0.43
2022-11-18T23:12:19.781Z,0.40
2022-11-18T23:14:48.188Z,0.40
2022-11-18T23:17:19.290Z,0.30
2022-11-18T23:19:48.021Z,0.37
2022-11-18T23:22:16.447Z,0.50
2022-11-18T23:24:44.871Z,0.27
2022-11-18T23:27:13.473Z,0.40
2022-11-18T23:29:41.915Z,0.50
2022-11-18T23:32:10.371Z,0.40
2022-11-18T23:34:40.355Z,0.27
2022-11-18T23:37:09.012Z,0.33
2022-11-18T23:39:37.429Z,0.10
2022-11-18T23:42:06.138Z,0.37
2022-11-18T23:44:47.197Z,0.20
2022-11-18T23:47:15.980Z,0.30
2022-11-18T23:49:45.820Z,0.40
2022-11-18T23:52:14.996Z,0.27
2022-11-18T23:54:43.644Z,0.27
2022-11-18T23:57:12.115Z,0.20
2022-11-18T23:59:40.546Z,0.43
